Terminal Aerodrome Forecast
Issued by NWS Goodland, KS

Home | Current Version | Previous Version | Text Only | Print | Product List | Glossary On
Versions: 1 2 3 4 5 6 7 8 9 10 11 12 13 14 15 16
768
FTUS43 KGLD 130538
TAFGLD
TAF
KGLD 130538Z 1306/1406 25008KT P6SM SKC
     FM130900 31014KT P6SM SKC
     FM131500 34018G26KT P6SM SCT200
      TEMPO 1317/1321 34025G35KT
     FM140000 34010KT P6SM SCT250=

USA.gov is the U.S. government's official web portal to all federal, state and local government web resources and services.